Time;durP1;ratioP1;P1;durP2;ratioP2;P2;SDS_P1;SDS_P2;PMS_P1;PMS_P2;Temp;Humidity;BMP_temperature;BMP_pressure;BME280_temperature;BME280_humidity;BME280_pressure;Samples;Min_cycle;Max_cycle;Signal;HPM_P1;HPM_P2
2022/01/08 00:01:54;;;;;;;;;;;;;;;16.85;45.95;100913.09;5084158;28;19912;-43
2022/01/08 00:04:19;;;;;;;;;;;;;;;16.84;45.91;100914.09;5065831;28;19981;-43
2022/01/08 00:06:44;;;;;;;;;;;;;;;16.83;45.86;100912.41;5083737;28;19916;-41
2022/01/08 00:09:09;;;;;;;;;;;;;;;16.83;45.86;100912.41;5082820;28;19927;-46
2022/01/08 00:11:35;;;;;;;;;;;;;;;16.83;46.19;100909.72;5084142;28;19917;-47
2022/01/08 00:14:04;;;;;;;;;;;;;;;16.82;45.97;100916.06;5083629;28;19928;-42
2022/01/08 00:16:33;;;;;;;;;;;;;;;16.81;45.92;100914.41;5083647;28;19959;-43
2022/01/08 00:18:58;;;;;;;;;;;;;;;16.80;45.96;100907.34;5083797;28;19923;-43
2022/01/08 00:21:23;;;;;;;;;;;;;;;16.80;45.91;100894.75;5083107;28;19913;-43
2022/01/08 00:23:48;;;;;;;;;;;;;;;16.78;46.06;100902.13;5083944;28;19999;-43
2022/01/08 00:26:13;;;;;;;;;;;;;;;16.78;45.87;100904.81;5083375;28;19920;-41
2022/01/08 00:28:38;;;;;;;;;;;;;;;16.78;46.11;100903.94;5083732;28;19913;-44
2022/01/08 00:31:04;;;;;;;;;;;;;;;16.76;45.90;100903.28;5083610;28;19918;-43
2022/01/08 00:33:29;;;;;;;;;;;;;;;16.74;46.07;100911.50;5083399;28;20409;-42
2022/01/08 00:35:54;;;;;;;;;;;;;;;16.73;45.94;100901.72;5082917;28;20305;-46
2022/01/08 00:38:19;;;;;;;;;;;;;;;16.71;46.06;100896.50;5083519;28;19912;-46
2022/01/08 00:40:44;;;;;;;;;;;;;;;16.70;45.99;100902.88;5083203;28;19912;-47
2022/01/08 00:43:09;;;;;;;;;;;;;;;16.70;46.03;100899.34;5083386;28;19912;-47
2022/01/08 00:45:35;;;;;;;;;;;;;;;16.69;46.10;100906.56;5083328;28;19912;-45
2022/01/08 00:48:00;;;;;;;;;;;;;;;16.67;46.15;100900.50;5083437;28;19971;-43
2022/01/08 00:50:25;;;;;;;;;;;;;;;16.67;46.07;100907.69;5082621;28;19924;-47
2022/01/08 00:52:50;;;;;;;;;;;;;;;16.65;46.12;100904.31;5083110;28;19916;-44
2022/01/08 00:55:15;;;;;;;;;;;;;;;16.65;46.18;100901.63;5082813;28;19956;-44
2022/01/08 00:57:41;;;;;;;;;;;;;;;16.64;45.95;100905.31;5083397;28;20014;-47
2022/01/08 01:00:07;;;;;;;;;;;;;;;16.62;45.95;100908.16;5082871;28;19938;-46
2022/01/08 01:02:33;;;;;;;;;;;;;;;16.62;46.21;100912.69;5065365;28;19913;-44
2022/01/08 01:04:58;;;;;;;;;;;;;;;16.61;46.03;100911.84;5082621;28;19954;-46
2022/01/08 01:07:23;;;;;;;;;;;;;;;16.60;46.10;100910.16;5083502;28;20023;-45
2022/01/08 01:09:48;;;;;;;;;;;;;;;16.60;46.16;100906.63;5082764;28;19912;-42
2022/01/08 01:12:13;;;;;;;;;;;;;;;16.59;46.18;100908.47;5082837;28;19959;-43
2022/01/08 01:14:38;;;;;;;;;;;;;;;16.58;46.02;100901.41;5083058;28;19972;-44
2022/01/08 01:17:04;;;;;;;;;;;;;;;16.58;46.24;100903.25;5064949;28;19945;-46
2022/01/08 01:19:30;;;;;;;;;;;;;;;16.56;46.12;100905.25;5082664;28;19954;-39
2022/01/08 01:21:57;;;;;;;;;;;;;;;16.55;46.25;100907.09;5082502;28;19923;-47
2022/01/08 01:24:25;;;;;;;;;;;;;;;16.54;46.13;100900.03;5082094;28;19916;-43
2022/01/08 01:29:49;;;;;;;;;;;;;;;16.53;46.20;100906.41;5082975;28;19912;-46
2022/01/08 01:48:20;;;;;;;;;;;;;;;16.46;46.08;100918.75;5062747;28;20004;-44
2022/01/08 01:50:45;;;;;;;;;;;;;;;16.46;46.18;100910.69;5044095;28;19919;-46
2022/01/08 01:53:10;;;;;;;;;;;;;;;16.44;46.16;100912.69;5073698;28;20429;-44
2022/01/08 01:55:35;;;;;;;;;;;;;;;16.42;46.19;100907.47;5082245;28;20394;-48
2022/01/08 01:58:02;;;;;;;;;;;;;;;16.42;46.21;100907.47;5082678;28;19912;-45
2022/01/08 02:00:28;;;;;;;;;;;;;;;16.41;46.20;100902.25;5082480;28;19912;-44
2022/01/08 02:02:53;;;;;;;;;;;;;;;16.40;46.23;100903.25;5082496;28;19942;-44
2022/01/08 02:05:18;;;;;;;;;;;;;;;16.38;46.11;100898.03;5081909;28;19962;-43
2022/01/08 02:07:43;;;;;;;;;;;;;;;16.38;46.08;100898.03;5064462;28;20464;-45
2022/01/08 02:10:09;;;;;;;;;;;;;;;16.36;46.32;100910.75;5082225;28;19912;-44
2022/01/08 02:12:34;;;;;;;;;;;;;;;16.36;46.11;100900.03;5082473;28;19920;-46
2022/01/08 02:14:59;;;;;;;;;;;;;;;16.35;46.13;100905.53;5082587;28;19921;-45
2022/01/08 02:17:24;;;;;;;;;;;;;;;16.34;46.13;100893.97;5082453;28;19959;-46
2022/01/08 02:19:53;;;;;;;;;;;;;;;16.33;46.04;100900.31;5081753;28;19924;-43
2022/01/08 02:22:20;;;;;;;;;;;;;;;16.31;46.08;100890.72;5082280;28;19938;-44
2022/01/08 02:24:46;;;;;;;;;;;;;;;16.30;46.27;100887.19;5081981;28;19913;-42
2022/01/08 02:27:11;;;;;;;;;;;;;;;16.29;46.14;100898.94;5082480;28;20038;-47
2022/01/08 02:29:36;;;;;;;;;;;;;;;16.26;46.17;100877.78;5082275;28;19923;-44
2022/01/08 02:32:08;;;;;;;;;;;;;;;16.25;46.24;100878.78;5082308;28;20254;-44
2022/01/08 02:34:33;;;;;;;;;;;;;;;16.24;46.26;100883.31;5084944;28;19952;-45
2022/01/08 02:36:59;;;;;;;;;;;;;;;16.24;46.32;100885.16;5085927;28;20447;-40
2022/01/08 02:39:24;;;;;;;;;;;;;;;16.22;46.25;100881.75;5085703;28;20392;-44
2022/01/08 02:41:54;;;;;;;;;;;;;;;16.22;46.22;100882.59;5085699;28;19918;-46
2022/01/08 02:44:19;;;;;;;;;;;;;;;16.21;46.14;100883.59;5085823;28;19912;-40
2022/01/08 02:46:44;;;;;;;;;;;;;;;16.21;46.29;100880.06;5085634;28;19922;-45
2022/01/08 02:49:09;;;;;;;;;;;;;;;16.21;46.06;100882.75;5085558;28;19920;-42
2022/01/08 02:51:35;;;;;;;;;;;;;;;16.20;46.18;100884.59;5084895;28;19913;-47
2022/01/08 02:54:01;;;;;;;;;;;;;;;16.19;46.15;100890.97;5085319;28;19927;-46
2022/01/08 02:56:26;;;;;;;;;;;;;;;16.18;46.24;100891.97;5085237;28;19916;-45
2022/01/08 02:58:51;;;;;;;;;;;;;;;16.18;46.28;100891.09;5085293;28;19912;-45
2022/01/08 03:01:16;;;;;;;;;;;;;;;16.16;46.24;100893.94;5085687;28;19916;-46
2022/01/08 03:03:41;;;;;;;;;;;;;;;16.15;46.16;100892.25;5085011;28;19912;-48
2022/01/08 03:06:07;;;;;;;;;;;;;;;16.15;46.13;100886.06;5084841;28;19912;-44
2022/01/08 03:08:32;;;;;;;;;;;;;;;16.14;46.19;100897.75;5085378;28;20246;-42
2022/01/08 03:10:57;;;;;;;;;;;;;;;16.13;46.21;100899.59;5084903;28;19912;-43
2022/01/08 03:13:22;;;;;;;;;;;;;;;16.12;46.16;100895.22;5063524;28;19921;-41
2022/01/08 03:15:47;;;;;;;;;;;;;;;16.12;46.24;100899.75;5064887;28;19913;-44
2022/01/08 03:18:12;;;;;;;;;;;;;;;16.10;46.24;100897.25;5065073;28;19927;-44
2022/01/08 03:20:46;;;;;;;;;;;;;;;16.10;46.31;100897.25;5064313;28;19920;-46
2022/01/08 03:23:15;;;;;;;;;;;;;;;16.10;46.29;100905.28;5065097;28;19913;-46
2022/01/08 03:25:40;;;;;;;;;;;;;;;16.07;46.24;100897.53;5064686;28;19912;-46
2022/01/08 03:28:05;;;;;;;;;;;;;;;16.08;46.20;100903.75;5065223;28;20449;-44
2022/01/08 03:30:31;;;;;;;;;;;;;;;16.06;46.14;100911.94;5064784;28;19920;-45
2022/01/08 03:32:56;;;;;;;;;;;;;;;16.05;46.21;100915.59;5064799;28;19939;-43
2022/01/08 03:35:21;;;;;;;;;;;;;;;16.05;46.16;100914.75;5064170;28;20012;-43
2022/01/08 03:37:47;;;;;;;;;;;;;;;16.05;46.26;100918.28;5064655;28;19923;-43
2022/01/08 03:40:13;;;;;;;;;;;;;;;16.06;46.00;100929.88;5064445;28;20369;-46
2022/01/08 03:42:38;;;;;;;;;;;;;;;16.05;46.21;100926.31;5064734;28;19947;-43
2022/01/08 03:45:03;;;;;;;;;;;;;;;16.06;46.18;100924.50;5064099;28;19913;-45
2022/01/08 03:49:54;;;;;;;;;;;;;;;16.04;46.12;100926.47;5064300;28;19913;-45
2022/01/08 03:52:19;;;;;;;;;;;;;;;16.03;46.19;100928.31;5064323;28;19912;-43
2022/01/08 03:54:44;;;;;;;;;;;;;;;16.03;46.09;100927.47;5063868;28;19921;-43
2022/01/08 03:57:10;;;;;;;;;;;;;;;16.02;46.20;100923.13;5064324;28;19958;-42
2022/01/08 03:59:35;;;;;;;;;;;;;;;16.00;46.17;100915.19;5064248;28;19919;-45
2022/01/08 04:02:00;;;;;;;;;;;;;;;16.00;46.13;100917.88;5064269;28;20008;-49
2022/01/08 04:04:25;;;;;;;;;;;;;;;16.00;46.24;100913.38;5063844;28;19924;-43
2022/01/08 04:06:50;;;;;;;;;;;;;;;15.99;46.11;100911.69;5063934;28;19912;-48
2022/01/08 04:09:16;;;;;;;;;;;;;;;16.00;46.10;100918.72;5064139;28;19947;-43
2022/01/08 04:11:42;;;;;;;;;;;;;;;16.00;46.13;100913.38;5063777;28;20007;-44
2022/01/08 04:14:07;;;;;;;;;;;;;;;16.00;46.05;100920.56;5082812;28;19948;-43
2022/01/08 04:16:35;;;;;;;;;;;;;;;15.99;45.97;100917.03;5083862;28;19912;-42
2022/01/08 04:19:00;;;;;;;;;;;;;;;16.00;46.17;100917.88;5083681;28;20416;-42
2022/01/08 04:23:51;;;;;;;;;;;;;;;15.99;46.08;100924.25;5083960;28;19913;-48
2022/01/08 04:26:16;;;;;;;;;;;;;;;15.97;46.02;100921.72;5083359;28;19938;-44
2022/01/08 04:28:42;;;;;;;;;;;;;;;15.97;45.96;100928.91;5083928;28;19912;-44
2022/01/08 04:31:07;;;;;;;;;;;;;;;15.96;46.10;100936.09;5083431;28;19917;-46
2022/01/08 04:33:32;;;;;;;;;;;;;;;15.95;46.13;100938.94;5083567;28;19917;-45
2022/01/08 04:35:57;;;;;;;;;;;;;;;15.94;46.31;100931.91;5083039;28;19923;-45
2022/01/08 04:38:22;;;;;;;;;;;;;;;15.93;46.16;100940.94;5083646;28;19912;-44
2022/01/08 04:40:48;;;;;;;;;;;;;;;15.93;46.11;100938.25;5083214;28;19912;-42
2022/01/08 04:43:13;;;;;;;;;;;;;;;15.92;45.96;100936.56;5083270;28;19913;-47
2022/01/08 04:45:38;;;;;;;;;;;;;;;15.91;46.05;100937.56;5083474;28;19912;-46
2022/01/08 04:48:04;;;;;;;;;;;;;;;15.90;46.07;100939.41;5083351;28;19920;-47
2022/01/08 04:50:29;;;;;;;;;;;;;;;15.90;46.03;100934.03;5082943;28;19955;-46
2022/01/08 04:52:55;;;;;;;;;;;;;;;15.89;46.08;100937.72;5083373;28;19919;-46
2022/01/08 04:55:20;;;;;;;;;;;;;;;15.89;45.93;100926.16;5082324;28;19923;-45
2022/01/08 04:57:46;;;;;;;;;;;;;;;15.88;46.07;100936.00;5083505;28;19920;-43
2022/01/08 05:00:11;;;;;;;;;;;;;;;15.88;45.98;100933.31;5083081;28;19919;-47
2022/01/08 05:02:37;;;;;;;;;;;;;;;15.88;46.01;100935.16;5083107;28;19987;-43
2022/01/08 05:05:02;;;;;;;;;;;;;;;15.88;46.08;100935.16;5082451;28;19917;-47
2022/01/08 05:07:27;;;;;;;;;;;;;;;15.87;45.98;100939.69;5083181;28;19948;-46
2022/01/08 05:09:52;;;;;;;;;;;;;;;15.88;45.95;100943.19;5082703;28;20561;-43
2022/01/08 05:12:17;;;;;;;;;;;;;;;15.86;46.05;100932.63;5082665;28;19948;-45
2022/01/08 05:14:44;;;;;;;;;;;;;;;15.87;45.94;100933.47;5082176;28;21143;-46
2022/01/08 05:17:10;;;;;;;;;;;;;;;15.88;45.90;100935.16;5082916;28;19948;-42
2022/01/08 05:19:38;;;;;;;;;;;;;;;15.88;46.14;100932.47;5082522;28;19912;-46
2022/01/08 05:22:05;;;;;;;;;;;;;;;15.86;45.88;100932.63;5082902;28;19913;-43
2022/01/08 05:24:30;;;;;;;;;;;;;;;15.86;45.96;100932.63;5082929;28;19912;-44
2022/01/08 05:26:55;;;;;;;;;;;;;;;15.85;45.95;100933.63;5082764;28;19919;-44
2022/01/08 05:29:20;;;;;;;;;;;;;;;15.75;45.99;100914.91;5082843;28;19962;-47
2022/01/08 05:31:48;;;;;;;;;;;;;;;15.85;45.92;100927.44;5081397;28;19961;-45
2022/01/08 05:34:13;;;;;;;;;;;;;;;15.86;46.01;100929.13;5082440;28;19917;-43
2022/01/08 05:36:38;;;;;;;;;;;;;;;15.85;45.93;100932.78;5079087;28;20035;-43
2022/01/08 05:39:03;;;;;;;;;;;;;;;15.85;45.94;100933.63;5062959;28;19916;-43
2022/01/08 05:41:28;;;;;;;;;;;;;;;15.85;45.99;100933.63;5067755;28;19999;-43
2022/01/08 05:43:54;;;;;;;;;;;;;;;15.86;46.00;100931.78;5080785;28;20323;-45
2022/01/08 05:46:19;;;;;;;;;;;;;;;15.86;46.00;100938.00;5082108;28;19935;-47
2022/01/08 05:48:44;;;;;;;;;;;;;;;15.86;45.95;100940.69;5082207;28;19912;-43
2022/01/08 05:51:09;;;;;;;;;;;;;;;15.87;45.99;100936.16;5081463;28;19912;-41
2022/01/08 05:53:34;;;;;;;;;;;;;;;15.87;45.99;100945.03;5081969;28;19917;-42
2022/01/08 05:55:59;;;;;;;;;;;;;;;15.87;45.89;100952.25;5072641;28;19938;-43
2022/01/08 05:58:24;;;;;;;;;;;;;;;15.77;46.02;100924.66;5062494;28;19923;-45
2022/01/08 06:00:49;;;;;;;;;;;;;;;15.89;46.00;100944.91;5075380;28;19913;-42
2022/01/08 06:03:16;;;;;;;;;;;;;;;15.89;45.97;100951.13;5081768;28;19912;-46
2022/01/08 06:05:41;;;;;;;;;;;;;;;15.90;46.00;100949.28;5062672;28;19912;-45
2022/01/08 06:08:06;;;;;;;;;;;;;;;15.89;46.17;100951.13;5063500;28;19916;-44
2022/01/08 06:10:31;;;;;;;;;;;;;;;15.90;45.98;100950.13;5076359;28;19970;-46
2022/01/08 06:12:57;;;;;;;;;;;;;;;15.90;45.98;100952.81;5085160;28;19921;-43
2022/01/08 06:15:22;;;;;;;;;;;;;;;15.92;46.11;100960.69;5068553;28;20285;-44
2022/01/08 06:17:47;;;;;;;;;;;;;;;15.94;46.11;100966.75;5065835;28;19912;-42
2022/01/08 06:20:12;;;;;;;;;;;;;;;15.94;46.14;100970.28;5065496;28;19913;-46
2022/01/08 06:22:38;;;;;;;;;;;;;;;15.95;46.17;100971.13;5065794;28;19920;-43
2022/01/08 06:25:03;;;;;;;;;;;;;;;15.95;46.04;100973.81;5077526;28;19912;-45
2022/01/08 06:27:28;;;;;;;;;;;;;;;15.96;46.14;100975.50;5086006;28;19979;-43
2022/01/08 06:29:53;;;;;;;;;;;;;;;15.96;46.13;100976.31;5073980;28;19923;-46
2022/01/08 06:32:20;;;;;;;;;;;;;;;15.96;46.23;100978.16;5074013;28;19989;-42
2022/01/08 06:34:45;;;;;;;;;;;;;;;15.96;46.15;100976.31;5078374;28;19943;-44
2022/01/08 06:37:10;;;;;;;;;;;;;;;15.97;46.23;100975.38;5075095;28;19984;-44
2022/01/08 06:39:35;;;;;;;;;;;;;;;15.97;46.25;100977.16;5061142;28;19917;-42
2022/01/08 06:42:01;;;;;;;;;;;;;;;15.97;46.26;100978.03;5075939;28;19921;-43
2022/01/08 06:44:26;;;;;;;;;;;;;;;15.97;46.34;100972.69;5081860;28;19927;-43
2022/01/08 06:46:51;;;;;;;;;;;;;;;15.98;46.34;100977.03;5079382;28;19920;-42
2022/01/08 06:49:17;;;;;;;;;;;;;;;15.99;46.33;100973.38;5078569;28;19917;-42
2022/01/08 06:51:42;;;;;;;;;;;;;;;15.98;46.38;100971.69;5073402;28;19913;-47
2022/01/08 06:54:07;;;;;;;;;;;;;;;15.98;46.33;100966.31;5078215;28;19995;-46
2022/01/08 06:56:32;;;;;;;;;;;;;;;15.99;46.35;100965.31;5083790;28;20138;-46
2022/01/08 06:58:57;;;;;;;;;;;;;;;15.99;46.41;100968.00;5076793;28;20339;-44
2022/01/08 07:01:23;;;;;;;;;;;;;;;16.00;46.31;100969.69;5084880;28;19912;-43
2022/01/08 07:03:48;;;;;;;;;;;;;;;15.99;46.40;100972.53;5076387;28;19919;-41
2022/01/08 07:06:13;;;;;;;;;;;;;;;16.00;46.31;100968.84;5084573;28;19976;-43
2022/01/08 07:08:38;;;;;;;;;;;;;;;16.01;46.48;100967.84;5083811;28;19913;-42
2022/01/08 07:11:03;;;;;;;;;;;;;;;15.99;46.48;100976.03;5077665;28;19913;-45
2022/01/08 07:13:28;;;;;;;;;;;;;;;16.02;46.43;100974.91;5077105;28;19921;-43
2022/01/08 07:15:53;;;;;;;;;;;;;;;16.02;46.46;100969.56;5065755;28;20389;-44
2022/01/08 07:18:19;;;;;;;;;;;;;;;16.07;46.44;100982.50;5064500;28;19913;-44
2022/01/08 07:20:44;;;;;;;;;;;;;;;16.11;46.40;100984.75;5048850;28;20024;-44
2022/01/08 07:23:09;;;;;;;;;;;;;;;16.17;46.41;100988.66;5078588;28;19912;-43
2022/01/08 07:25:34;;;;;;;;;;;;;;;16.19;46.36;100981.34;5078709;28;19958;-46
2022/01/08 07:27:59;;;;;;;;;;;;;;;16.22;46.15;100979.16;5084682;28;19938;-47
2022/01/08 07:30:24;;;;;;;;;;;;;;;16.24;46.14;100979.03;5079717;28;20436;-49
2022/01/08 07:32:50;;;;;;;;;;;;;;;16.27;46.08;100985.94;5080905;28;19927;-48
2022/01/08 07:35:16;;;;;;;;;;;;;;;16.29;45.90;100983.94;5074744;28;19923;-45
2022/01/08 07:37:41;;;;;;;;;;;;;;;16.31;45.86;100977.47;5059048;28;19923;-46
2022/01/08 07:40:08;;;;;;;;;;;;;;;16.33;45.88;100978.13;5072832;28;19912;-45
2022/01/08 07:42:33;;;;;;;;;;;;;;;16.36;45.82;100975.16;5063432;28;19917;-45
2022/01/08 07:44:58;;;;;;;;;;;;;;;16.37;45.88;100976.00;5064383;28;19913;-44
2022/01/08 07:47:23;;;;;;;;;;;;;;;16.39;45.77;100995.47;5053808;28;19917;-45
2022/01/08 07:49:48;;;;;;;;;;;;;;;16.39;45.85;100993.63;5083695;28;19923;-43
2022/01/08 07:52:14;;;;;;;;;;;;;;;16.41;45.69;100982.75;5084328;28;19913;-43
2022/01/08 07:54:39;;;;;;;;;;;;;;;16.43;45.67;100989.66;5062782;28;19926;-45
2022/01/08 07:57:04;;;;;;;;;;;;;;;16.45;45.57;100986.84;5081277;28;19912;-43
2022/01/08 07:59:29;;;;;;;;;;;;;;;16.34;45.73;100976.28;5083966;28;19928;-43
2022/01/08 08:01:54;;;;;;;;;;;;;;;16.48;45.58;100981.13;5080163;28;19928;-45
2022/01/08 08:04:19;;;;;;;;;;;;;;;16.50;45.48;100981.84;5078785;28;19916;-43
2022/01/08 08:06:45;;;;;;;;;;;;;;;16.52;45.40;100979.84;5083741;28;19917;-50
2022/01/08 08:09:10;;;;;;;;;;;;;;;16.53;45.53;100978.03;5084075;28;20331;-44
2022/01/08 08:11:35;;;;;;;;;;;;;;;16.54;45.32;100977.03;5065825;28;19962;-47
2022/01/08 08:14:00;;;;;;;;;;;;;;;16.54;45.33;100969.81;5083626;28;19921;-47
2022/01/08 08:16:26;;;;;;;;;;;;;;;16.56;45.35;100953.56;5083368;28;20605;-44
2022/01/08 08:18:51;;;;;;;;;;;;;;;16.57;45.36;100955.25;5083724;28;19919;-50
2022/01/08 08:21:16;;;;;;;;;;;;;;;16.58;45.42;100954.25;5083448;28;19917;-42
2022/01/08 08:23:41;;;;;;;;;;;;;;;16.59;45.24;100954.09;5083723;28;20320;-42
2022/01/08 08:26:06;;;;;;;;;;;;;;;16.60;45.51;100961.16;5083004;28;19927;-43
2022/01/08 08:28:31;;;;;;;;;;;;;;;16.64;45.17;100953.63;5083672;28;19984;-46
2022/01/08 08:30:57;;;;;;;;;;;;;;;16.66;45.25;100954.34;5062065;28;19917;-46
2022/01/08 08:33:22;;;;;;;;;;;;;;;16.67;45.17;100954.19;5071388;28;19921;-43
2022/01/08 08:35:47;;;;;;;;;;;;;;;16.69;45.29;100954.88;5073683;28;19919;-45
2022/01/08 08:38:12;;;;;;;;;;;;;;;16.72;45.19;100945.66;5082776;28;19916;-44
2022/01/08 08:40:38;;;;;;;;;;;;;;;16.75;45.09;100950.78;5083163;28;19934;-44
2022/01/08 08:43:03;;;;;;;;;;;;;;;16.76;45.02;100939.03;5083265;28;19920;-46
2022/01/08 08:45:28;;;;;;;;;;;;;;;16.80;45.14;100937.72;5083370;28;19912;-45
2022/01/08 08:47:56;;;;;;;;;;;;;;;16.88;44.76;100928.91;5083425;28;19959;-44
2022/01/08 08:50:23;;;;;;;;;;;;;;;17.06;44.57;100928.88;5082615;28;19912;-46
2022/01/08 08:52:49;;;;;;;;;;;;;;;17.37;44.17;100926.56;5083299;28;19955;-49
2022/01/08 08:55:14;;;;;;;;;;;;;;;17.67;43.70;100919.84;5082507;28;19917;-45
2022/01/08 08:57:40;;;;;;;;;;;;;;;17.91;42.80;100916.47;5083384;28;19912;-46
2022/01/08 09:00:05;;;;;;;;;;;;;;;18.07;42.58;100921.94;5081594;28;19923;-44
2022/01/08 09:02:30;;;;;;;;;;;;;;;18.20;42.24;100913.41;5083205;28;19918;-43
2022/01/08 09:04:55;;;;;;;;;;;;;;;18.35;41.89;100909.06;5082380;28;19912;-45
2022/01/08 09:07:21;;;;;;;;;;;;;;;18.50;41.38;100903.88;5083158;28;20003;-47
2022/01/08 09:09:46;;;;;;;;;;;;;;;18.62;41.10;100905.22;5082762;28;19928;-44
2022/01/08 09:12:15;;;;;;;;;;;;;;;18.61;40.97;100903.56;5083072;28;19946;-43
2022/01/08 09:14:41;;;;;;;;;;;;;;;18.51;41.01;100905.53;5082948;28;19917;-42
2022/01/08 09:17:06;;;;;;;;;;;;;;;18.34;41.08;100907.38;5082695;28;19916;-43
2022/01/08 09:19:31;;;;;;;;;;;;;;;18.19;41.41;100911.72;5082206;28;19912;-44
2022/01/08 09:21:56;;;;;;;;;;;;;;;18.04;41.68;100914.16;5082774;28;19916;-46
2022/01/08 09:24:22;;;;;;;;;;;;;;;17.93;41.93;100917.19;5082813;28;20011;-45
2022/01/08 09:26:47;;;;;;;;;;;;;;;17.84;42.09;100915.44;5082278;28;19916;-44
2022/01/08 09:29:13;;;;;;;;;;;;;;;17.77;42.20;100917.09;5082730;28;19939;-43
2022/01/08 09:31:38;;;;;;;;;;;;;;;17.67;42.24;100909.97;5082726;28;19959;-43
2022/01/08 09:34:03;;;;;;;;;;;;;;;17.63;42.34;100919.34;5082524;28;19917;-47
2022/01/08 09:36:29;;;;;;;;;;;;;;;17.59;42.54;100917.16;5082573;28;20372;-45
2022/01/08 09:38:54;;;;;;;;;;;;;;;17.56;42.66;100914.78;5082522;28;19963;-44
2022/01/08 09:41:19;;;;;;;;;;;;;;;17.53;42.78;100907.03;5082674;28;19920;-47
2022/01/08 09:43:45;;;;;;;;;;;;;;;17.52;42.45;100905.34;5068485;28;20006;-46
2022/01/08 09:46:11;;;;;;;;;;;;;;;17.51;42.59;100903.66;5068875;28;19912;-43
2022/01/08 09:48:36;;;;;;;;;;;;;;;17.48;42.74;100889.53;5086961;28;19919;-43
2022/01/08 09:51:01;;;;;;;;;;;;;;;17.45;42.63;100875.56;5085910;28;19913;-43
2022/01/08 09:53:26;;;;;;;;;;;;;;;17.44;42.73;100872.03;5086644;28;19962;-47
2022/01/08 09:55:51;;;;;;;;;;;;;;;17.42;42.74;100862.47;5086311;28;19952;-45
2022/01/08 09:58:16;;;;;;;;;;;;;;;17.42;42.88;100862.47;5086898;28;19916;-44
2022/01/08 10:00:42;;;;;;;;;;;;;;;17.41;42.83;100866.97;5086288;28;19969;-47
2022/01/08 10:03:14;;;;;;;;;;;;;;;17.40;42.80;100857.22;5068153;28;19923;-44
2022/01/08 10:05:44;;;;;;;;;;;;;;;17.39;42.91;100855.53;5084584;28;19947;-45
2022/01/08 10:08:10;;;;;;;;;;;;;;;17.40;42.80;100867.13;5086316;28;19912;-45
2022/01/08 10:10:35;;;;;;;;;;;;;;;17.39;42.92;100847.47;5068226;28;19939;-45
2022/01/08 10:13:01;;;;;;;;;;;;;;;17.39;42.99;100842.09;5064764;28;19927;-50
2022/01/08 10:18:32;;;;;;;;;;;;;;;17.39;42.92;100820.59;5063995;28;19919;-45
2022/01/08 10:20:57;;;;;;;;;;;;;;;17.42;42.83;100814.06;5062749;28;20404;-44
2022/01/08 10:23:25;;;;;;;;;;;;;;;17.42;42.62;100804.16;5063466;28;19913;-44
2022/01/08 10:26:04;;;;;;;;;;;;;;;17.44;42.80;100790.56;5062758;28;19971;-44
2022/01/08 10:28:38;;;;;;;;;;;;;;;17.45;42.84;100784.16;5063570;28;19948;-46
2022/01/08 10:31:22;;;;;;;;;;;;;;;17.48;42.81;100773.09;5063015;28;19913;-45
2022/01/08 10:33:53;;;;;;;;;;;;;;;17.53;42.77;100769.91;5063105;28;19921;-46
2022/01/08 10:36:19;;;;;;;;;;;;;;;17.57;42.78;100769.44;5062791;28;19920;-47
2022/01/08 10:38:46;;;;;;;;;;;;;;;17.64;42.74;100772.31;5063025;28;19924;-46
2022/01/08 10:41:12;;;;;;;;;;;;;;;17.69;42.45;100783.41;5046133;28;19912;-46
2022/01/08 10:43:37;;;;;;;;;;;;;;;17.74;42.53;100763.13;5063375;28;19917;-45
2022/01/08 10:46:10;;;;;;;;;;;;;;;17.79;42.25;100759.94;5046019;28;19912;-45
2022/01/08 10:48:35;;;;;;;;;;;;;;;17.81;42.30;100749.88;5063116;28;20654;-44
2022/01/08 10:51:27;;;;;;;;;;;;;;;17.82;42.04;100746.16;5028989;28;19913;-45
2022/01/08 10:53:52;;;;;;;;;;;;;;;17.83;42.22;100744.31;5061095;28;19924;-46
2022/01/08 10:56:24;;;;;;;;;;;;;;;17.81;42.36;100732.91;5065074;28;19916;-43
2022/01/08 10:58:52;;;;;;;;;;;;;;;17.79;42.34;100735.72;5065602;28;20324;-44
2022/01/08 11:01:36;;;;;;;;;;;;;;;17.75;42.45;100715.56;5065338;28;19959;-44
2022/01/08 11:04:02;;;;;;;;;;;;;;;17.70;42.46;100716.03;5065051;28;19920;-43
2022/01/08 11:06:27;;;;;;;;;;;;;;;17.67;42.63;100704.75;5064987;28;19916;-46
2022/01/08 11:09:01;;;;;;;;;;;;;;;17.63;42.53;100698.88;5064809;28;19962;-44
2022/01/08 11:11:29;;;;;;;;;;;;;;;17.63;42.62;100704.28;5064778;28;19920;-43
2022/01/08 11:13:57;;;;;;;;;;;;;;;17.63;42.53;100698.06;5082948;28;19920;-43
2022/01/08 11:16:23;;;;;;;;;;;;;;;17.64;42.53;100697.03;5085200;28;19913;-43
2022/01/08 11:18:48;;;;;;;;;;;;;;;17.66;42.64;100681.56;5084992;28;19913;-43
2022/01/08 11:21:13;;;;;;;;;;;;;;;17.69;42.54;100679.41;5084291;28;19935;-43
2022/01/08 11:23:38;;;;;;;;;;;;;;;17.70;42.39;100670.31;5084245;28;19972;-45
2022/01/08 11:26:03;;;;;;;;;;;;;;;17.71;42.29;100663.94;5083686;28;19924;-44
2022/01/08 11:28:34;;;;;;;;;;;;;;;17.74;42.34;100660.09;5063908;28;19939;-45
2022/01/08 11:30:59;;;;;;;;;;;;;;;17.74;42.54;100658.25;5064534;28;19912;-42
2022/01/08 11:33:29;;;;;;;;;;;;;;;17.76;42.36;100650.03;5057919;28;19920;-45
2022/01/08 11:35:54;;;;;;;;;;;;;;;17.77;42.36;100642.81;5064602;28;19916;-48
2022/01/08 11:38:20;;;;;;;;;;;;;;;17.79;42.51;100632.72;5069682;28;19938;-42
2022/01/08 11:40:48;;;;;;;;;;;;;;;17.80;42.57;100635.25;5084313;28;19917;-43
2022/01/08 11:43:14;;;;;;;;;;;;;;;17.82;42.57;100624.31;5084411;28;20407;-47
2022/01/08 11:45:43;;;;;;;;;;;;;;;17.83;42.61;100618.75;5084345;28;19987;-43
2022/01/08 11:48:09;;;;;;;;;;;;;;;17.84;42.42;100615.09;5083365;28;19988;-44
2022/01/08 11:50:34;;;;;;;;;;;;;;;17.88;42.62;100602.09;5083941;28;19936;-44
2022/01/08 11:53:17;;;;;;;;;;;;;;;17.88;42.60;100599.41;5084400;28;19913;-45
2022/01/08 11:55:43;;;;;;;;;;;;;;;17.91;42.46;100594.53;5080348;28;19936;-44
2022/01/08 11:58:23;;;;;;;;;;;;;;;17.92;42.69;100590.84;5070959;28;19916;-47
2022/01/08 12:00:48;;;;;;;;;;;;;;;17.93;42.84;100587.16;5083697;28;19934;-41
2022/01/08 12:03:24;;;;;;;;;;;;;;;17.94;42.72;100575.38;5075006;28;19916;-42
2022/01/08 12:05:49;;;;;;;;;;;;;;;17.94;42.81;100570.00;5066073;28;19923;-43
2022/01/08 12:08:17;;;;;;;;;;;;;;;17.94;42.91;100561.94;5083407;28;19933;-43
2022/01/08 12:10:51;;;;;;;;;;;;;;;17.95;42.96;100550.16;5079851;28;19917;-43
2022/01/08 12:13:17;;;;;;;;;;;;;;;17.95;42.90;100549.31;5076580;28;19992;-41
2022/01/08 12:15:42;;;;;;;;;;;;;;;17.95;42.91;100539.41;5071900;28;19928;-45
2022/01/08 12:18:08;;;;;;;;;;;;;;;17.97;42.97;100525.81;5079689;28;19920;-43
2022/01/08 12:20:52;;;;;;;;;;;;;;;17.98;42.74;100531.00;5075986;28;19964;-44
2022/01/08 12:23:29;;;;;;;;;;;;;;;18.01;42.94;100518.19;5065338;28;20396;-44
2022/01/08 12:25:54;;;;;;;;;;;;;;;18.03;42.79;100510.81;5065737;28;19925;-43
2022/01/08 12:28:38;;;;;;;;;;;;;;;18.04;42.83;100507.94;5077008;28;19921;-44
2022/01/08 12:31:22;;;;;;;;;;;;;;;18.08;43.08;100500.38;5080065;28;20017;-43
2022/01/08 12:34:07;;;;;;;;;;;;;;;18.08;42.82;100487.75;5077846;28;19966;-43
2022/01/08 12:36:34;;;;;;;;;;;;;;;18.12;42.83;100477.50;5082937;28;19916;-44
2022/01/08 12:39:03;;;;;;;;;;;;;;;18.16;42.93;100476.13;5065174;28;20404;-43
2022/01/08 12:41:28;;;;;;;;;;;;;;;18.19;42.70;100465.03;5082999;28;19923;-42
2022/01/08 12:43:53;;;;;;;;;;;;;;;18.22;42.72;100452.06;5083240;28;19912;-42
2022/01/08 12:46:19;;;;;;;;;;;;;;;18.24;42.79;100441.94;5082256;28;19948;-44
2022/01/08 12:49:03;;;;;;;;;;;;;;;18.27;42.58;100430.00;5083266;28;19912;-43
2022/01/08 12:51:47;;;;;;;;;;;;;;;18.27;42.74;100413.88;5082795;28;19912;-44
2022/01/08 12:54:13;;;;;;;;;;;;;;;18.26;42.55;100405.94;5083176;28;20015;-43
2022/01/08 12:56:45;;;;;;;;;;;;;;;18.24;42.79;100390.81;5082858;28;19923;-44
2022/01/08 12:59:10;;;;;;;;;;;;;;;18.24;42.57;100381.91;5083113;28;20277;-41